sensor_id;sensor_type;location;lat;lon;timestamp;pressure;altitude;pressure_sealevel;temperature;humidity
30554;BME280;17335;50.720;7.452;2023-07-20T00:01:27;99113.41;;;16.36;100.00
30554;BME280;17335;50.720;7.452;2023-07-20T00:03:54;99108.34;;;16.33;100.00
30554;BME280;17335;50.720;7.452;2023-07-20T00:06:24;99113.31;;;16.29;100.00
30554;BME280;17335;50.720;7.452;2023-07-20T00:08:56;99110.69;;;16.36;100.00
30554;BME280;17335;50.720;7.452;2023-07-20T00:11:27;99105.00;;;16.31;100.00
30554;BME280;17335;50.720;7.452;2023-07-20T00:13:53;99115.63;;;16.33;100.00
30554;BME280;17335;50.720;7.452;2023-07-20T00:16:20;99115.47;;;16.34;100.00
30554;BME280;17335;50.720;7.452;2023-07-20T00:18:47;99107.97;;;16.36;100.00
30554;BME280;17335;50.720;7.452;2023-07-20T00:21:14;99111.53;;;16.37;100.00
30554;BME280;17335;50.720;7.452;2023-07-20T00:23:40;99109.84;;;16.36;100.00
30554;BME280;17335;50.720;7.452;2023-07-20T00:26:06;99115.19;;;16.29;100.00
30554;BME280;17335;50.720;7.452;2023-07-20T00:28:33;99114.53;;;16.27;100.00
30554;BME280;17335;50.720;7.452;2023-07-20T00:31:00;99117.50;;;16.32;100.00
30554;BME280;17335;50.720;7.452;2023-07-20T00:33:26;99106.22;;;16.28;100.00
30554;BME280;17335;50.720;7.452;2023-07-20T00:35:53;99118.81;;;16.36;100.00
30554;BME280;17335;50.720;7.452;2023-07-20T00:38:19;99115.38;;;16.42;100.00
30554;BME280;17335;50.720;7.452;2023-07-20T00:40:46;99105.53;;;16.56;100.00
30554;BME280;17335;50.720;7.452;2023-07-20T00:43:14;99108.69;;;16.60;100.00
30554;BME280;17335;50.720;7.452;2023-07-20T00:45:42;99110.00;;;16.64;100.00
30554;BME280;17335;50.720;7.452;2023-07-20T00:48:08;99109.63;;;16.67;100.00
30554;BME280;17335;50.720;7.452;2023-07-20T00:50:35;99115.03;;;16.67;100.00
30554;BME280;17335;50.720;7.452;2023-07-20T00:53:03;99118.03;;;16.72;100.00
30554;BME280;17335;50.720;7.452;2023-07-20T00:55:31;99116.59;;;16.91;100.00
30554;BME280;17335;50.720;7.452;2023-07-20T00:57:59;99121.38;;;16.89;100.00
30554;BME280;17335;50.720;7.452;2023-07-20T01:00:26;99120.81;;;16.94;100.00
30554;BME280;17335;50.720;7.452;2023-07-20T01:02:52;99131.97;;;16.84;100.00
30554;BME280;17335;50.720;7.452;2023-07-20T01:05:19;99133.53;;;16.78;100.00
30554;BME280;17335;50.720;7.452;2023-07-20T01:10:33;99136.34;;;16.70;100.00
30554;BME280;17335;50.720;7.452;2023-07-20T01:13:03;99140.22;;;16.61;100.00
30554;BME280;17335;50.720;7.452;2023-07-20T01:15:35;99136.81;;;16.59;100.00
30554;BME280;17335;50.720;7.452;2023-07-20T01:18:02;99142.38;;;16.50;100.00
30554;BME280;17335;50.720;7.452;2023-07-20T01:20:31;99152.47;;;16.42;100.00
30554;BME280;17335;50.720;7.452;2023-07-20T01:23:22;99144.78;;;16.45;100.00
30554;BME280;17335;50.720;7.452;2023-07-20T01:31:24;99140.94;;;16.40;100.00
30554;BME280;17335;50.720;7.452;2023-07-20T01:33:56;99135.84;;;16.30;100.00
30554;BME280;17335;50.720;7.452;2023-07-20T01:36:24;99134.13;;;16.29;100.00
30554;BME280;17335;50.720;7.452;2023-07-20T01:38:53;99136.66;;;16.30;100.00
30554;BME280;17335;50.720;7.452;2023-07-20T01:41:20;99138.53;;;16.30;100.00
30554;BME280;17335;50.720;7.452;2023-07-20T01:43:46;99136.66;;;16.16;100.00
30554;BME280;17335;50.720;7.452;2023-07-20T01:46:13;99142.53;;;16.19;100.00
30554;BME280;17335;50.720;7.452;2023-07-20T01:48:40;99134.34;;;16.12;100.00
30554;BME280;17335;50.720;7.452;2023-07-20T01:51:06;99139.75;;;16.12;100.00
30554;BME280;17335;50.720;7.452;2023-07-20T01:53:33;99137.88;;;16.13;100.00
30554;BME280;17335;50.720;7.452;2023-07-20T01:55:59;99137.22;;;16.11;100.00
30554;BME280;17335;50.720;7.452;2023-07-20T01:58:26;99141.31;;;16.07;100.00
30554;BME280;17335;50.720;7.452;2023-07-20T02:00:52;99140.47;;;16.06;100.00
30554;BME280;17335;50.720;7.452;2023-07-20T02:03:18;99142.25;;;15.99;100.00
30554;BME280;17335;50.720;7.452;2023-07-20T02:05:48;99137.56;;;15.93;100.00
30554;BME280;17335;50.720;7.452;2023-07-20T02:08:14;99135.31;;;15.97;100.00
30554;BME280;17335;50.720;7.452;2023-07-20T02:10:45;99146.16;;;15.97;100.00
30554;BME280;17335;50.720;7.452;2023-07-20T02:13:11;99135.63;;;15.87;100.00
30554;BME280;17335;50.720;7.452;2023-07-20T02:15:38;99132.22;;;15.85;100.00
30554;BME280;17335;50.720;7.452;2023-07-20T02:18:04;99136.63;;;15.86;100.00
30554;BME280;17335;50.720;7.452;2023-07-20T02:20:31;99130.56;;;15.84;100.00
30554;BME280;17335;50.720;7.452;2023-07-20T02:22:57;99128.88;;;15.83;100.00
30554;BME280;17335;50.720;7.452;2023-07-20T02:25:24;99136.16;;;15.82;100.00
30554;BME280;17335;50.720;7.452;2023-07-20T02:27:50;99129.81;;;15.75;100.00
30554;BME280;17335;50.720;7.452;2023-07-20T02:30:16;99130.97;;;15.72;100.00
30554;BME280;17335;50.720;7.452;2023-07-20T02:32:43;99130.31;;;15.70;100.00
30554;BME280;17335;50.720;7.452;2023-07-20T02:35:15;99132.84;;;15.72;100.00
30554;BME280;17335;50.720;7.452;2023-07-20T02:37:43;99144.03;;;15.69;100.00
30554;BME280;17335;50.720;7.452;2023-07-20T02:40:10;99136.09;;;15.67;100.00
30554;BME280;17335;50.720;7.452;2023-07-20T02:42:37;99133.56;;;15.66;100.00
30554;BME280;17335;50.720;7.452;2023-07-20T02:45:04;99138.50;;;15.62;100.00
30554;BME280;17335;50.720;7.452;2023-07-20T02:47:31;99137.53;;;15.55;100.00
30554;BME280;17335;50.720;7.452;2023-07-20T02:49:58;99132.13;;;15.55;100.00
30554;BME280;17335;50.720;7.452;2023-07-20T02:52:24;99131.72;;;15.66;100.00
30554;BME280;17335;50.720;7.452;2023-07-20T02:54:50;99135.50;;;15.57;100.00
30554;BME280;17335;50.720;7.452;2023-07-20T02:57:17;99128.13;;;15.51;100.00
30554;BME280;17335;50.720;7.452;2023-07-20T02:59:44;99139.66;;;15.45;100.00
30554;BME280;17335;50.720;7.452;2023-07-20T03:02:10;99132.47;;;15.37;100.00
30554;BME280;17335;50.720;7.452;2023-07-20T03:04:36;99131.78;;;15.35;100.00
30554;BME280;17335;50.720;7.452;2023-07-20T03:07:05;99137.75;;;15.30;100.00
30554;BME280;17335;50.720;7.452;2023-07-20T03:09:31;99140.50;;;15.22;100.00
30554;BME280;17335;50.720;7.452;2023-07-20T03:11:58;99151.03;;;15.17;100.00
30554;BME280;17335;50.720;7.452;2023-07-20T03:14:24;99151.72;;;15.11;100.00
30554;BME280;17335;50.720;7.452;2023-07-20T03:16:50;99150.41;;;15.07;100.00
30554;BME280;17335;50.720;7.452;2023-07-20T03:19:17;99155.50;;;15.02;100.00
30554;BME280;17335;50.720;7.452;2023-07-20T03:21:44;99154.69;;;15.01;100.00
30554;BME280;17335;50.720;7.452;2023-07-20T03:24:10;99157.88;;;15.05;100.00
30554;BME280;17335;50.720;7.452;2023-07-20T03:26:36;99161.56;;;15.04;100.00
30554;BME280;17335;50.720;7.452;2023-07-20T03:29:04;99165.50;;;15.01;100.00
30554;BME280;17335;50.720;7.452;2023-07-20T03:31:30;99166.66;;;14.98;100.00
30554;BME280;17335;50.720;7.452;2023-07-20T03:33:57;99169.72;;;14.95;100.00
30554;BME280;17335;50.720;7.452;2023-07-20T03:36:23;99164.63;;;15.00;100.00
30554;BME280;17335;50.720;7.452;2023-07-20T03:38:50;99161.13;;;14.92;100.00
30554;BME280;17335;50.720;7.452;2023-07-20T03:41:17;99175.84;;;14.89;100.00
30554;BME280;17335;50.720;7.452;2023-07-20T03:43:43;99174.50;;;14.85;100.00
30554;BME280;17335;50.720;7.452;2023-07-20T03:46:10;99174.88;;;14.82;100.00
30554;BME280;17335;50.720;7.452;2023-07-20T03:48:36;99178.91;;;14.86;100.00
30554;BME280;17335;50.720;7.452;2023-07-20T03:51:02;99185.63;;;14.90;100.00
30554;BME280;17335;50.720;7.452;2023-07-20T03:53:29;99176.69;;;14.90;100.00
30554;BME280;17335;50.720;7.452;2023-07-20T03:55:55;99168.75;;;14.88;100.00
30554;BME280;17335;50.720;7.452;2023-07-20T03:58:22;99177.72;;;14.89;100.00
30554;BME280;17335;50.720;7.452;2023-07-20T04:00:50;99178.56;;;14.89;100.00
30554;BME280;17335;50.720;7.452;2023-07-20T04:03:20;99191.25;;;14.89;100.00
30554;BME280;17335;50.720;7.452;2023-07-20T04:05:49;99179.72;;;14.87;100.00
30554;BME280;17335;50.720;7.452;2023-07-20T04:08:15;99173.16;;;14.89;100.00
30554;BME280;17335;50.720;7.452;2023-07-20T04:10:45;99179.53;;;14.96;100.00
30554;BME280;17335;50.720;7.452;2023-07-20T04:13:11;99174.78;;;14.98;100.00
30554;BME280;17335;50.720;7.452;2023-07-20T04:15:38;99183.56;;;15.00;100.00
30554;BME280;17335;50.720;7.452;2023-07-20T04:18:05;99181.16;;;15.06;100.00
30554;BME280;17335;50.720;7.452;2023-07-20T04:20:31;99179.84;;;15.02;100.00
30554;BME280;17335;50.720;7.452;2023-07-20T04:22:57;99174.75;;;15.07;100.00
30554;BME280;17335;50.720;7.452;2023-07-20T04:25:24;99188.03;;;15.16;100.00
30554;BME280;17335;50.720;7.452;2023-07-20T04:27:50;99185.09;;;15.26;100.00
30554;BME280;17335;50.720;7.452;2023-07-20T04:30:18;99177.28;;;15.31;100.00
30554;BME280;17335;50.720;7.452;2023-07-20T04:32:49;99175.53;;;15.38;100.00
30554;BME280;17335;50.720;7.452;2023-07-20T04:35:45;99174.81;;;15.45;100.00
30554;BME280;17335;50.720;7.452;2023-07-20T04:38:12;99176.25;;;15.55;100.00
30554;BME280;17335;50.720;7.452;2023-07-20T04:40:38;99170.91;;;15.70;100.00
30554;BME280;17335;50.720;7.452;2023-07-20T04:43:05;99176.13;;;15.72;100.00
30554;BME280;17335;50.720;7.452;2023-07-20T04:45:32;99169.50;;;15.74;100.00
30554;BME280;17335;50.720;7.452;2023-07-20T04:47:58;99167.84;;;15.73;100.00
30554;BME280;17335;50.720;7.452;2023-07-20T04:50:25;99165.13;;;15.73;100.00
30554;BME280;17335;50.720;7.452;2023-07-20T04:52:51;99170.88;;;15.79;100.00
30554;BME280;17335;50.720;7.452;2023-07-20T04:55:18;99173.41;;;15.80;100.00
30554;BME280;17335;50.720;7.452;2023-07-20T04:57:45;99168.94;;;15.87;100.00
30554;BME280;17335;50.720;7.452;2023-07-20T05:00:12;99178.53;;;15.90;100.00
30554;BME280;17335;50.720;7.452;2023-07-20T05:02:39;99176.28;;;15.93;100.00
30554;BME280;17335;50.720;7.452;2023-07-20T05:05:06;99170.88;;;15.93;100.00
30554;BME280;17335;50.720;7.452;2023-07-20T05:07:32;99170.41;;;15.90;100.00
30554;BME280;17335;50.720;7.452;2023-07-20T05:09:59;99176.88;;;15.89;100.00
30554;BME280;17335;50.720;7.452;2023-07-20T05:12:25;99181.06;;;15.91;100.00
30554;BME280;17335;50.720;7.452;2023-07-20T05:14:52;99172.94;;;15.91;100.00
30554;BME280;17335;50.720;7.452;2023-07-20T05:17:18;99175.28;;;15.94;100.00
30554;BME280;17335;50.720;7.452;2023-07-20T05:19:45;99175.66;;;15.91;100.00
30554;BME280;17335;50.720;7.452;2023-07-20T05:22:13;99171.09;;;15.92;100.00
30554;BME280;17335;50.720;7.452;2023-07-20T05:24:40;99177.63;;;15.98;100.00
30554;BME280;17335;50.720;7.452;2023-07-20T05:27:06;99174.75;;;15.99;100.00
30554;BME280;17335;50.720;7.452;2023-07-20T05:29:33;99171.16;;;15.99;100.00
30554;BME280;17335;50.720;7.452;2023-07-20T05:31:59;99177.38;;;16.07;100.00
30554;BME280;17335;50.720;7.452;2023-07-20T05:34:26;99176.25;;;16.17;100.00
30554;BME280;17335;50.720;7.452;2023-07-20T05:37:07;99180.75;;;16.09;100.00
30554;BME280;17335;50.720;7.452;2023-07-20T05:39:40;99176.44;;;16.15;100.00
30554;BME280;17335;50.720;7.452;2023-07-20T05:42:06;99173.72;;;16.15;100.00
30554;BME280;17335;50.720;7.452;2023-07-20T05:44:33;99175.50;;;16.23;100.00
30554;BME280;17335;50.720;7.452;2023-07-20T05:46:59;99174.75;;;16.14;100.00
30554;BME280;17335;50.720;7.452;2023-07-20T05:49:26;99169.06;;;16.24;100.00
30554;BME280;17335;50.720;7.452;2023-07-20T05:51:54;99183.19;;;16.34;100.00
30554;BME280;17335;50.720;7.452;2023-07-20T05:54:21;99180.47;;;16.49;100.00
30554;BME280;17335;50.720;7.452;2023-07-20T05:56:48;99184.03;;;16.49;100.00
30554;BME280;17335;50.720;7.452;2023-07-20T05:59:14;99183.28;;;16.56;100.00
30554;BME280;17335;50.720;7.452;2023-07-20T06:01:41;99177.88;;;16.56;100.00
30554;BME280;17335;50.720;7.452;2023-07-20T06:04:09;99184.69;;;16.66;100.00
30554;BME280;17335;50.720;7.452;2023-07-20T06:06:36;99182.03;;;16.88;100.00
30554;BME280;17335;50.720;7.452;2023-07-20T06:09:02;99189.69;;;16.99;100.00
30554;BME280;17335;50.720;7.452;2023-07-20T06:11:30;99174.97;;;16.87;100.00
30554;BME280;17335;50.720;7.452;2023-07-20T06:13:57;99180.47;;;16.94;100.00
30554;BME280;17335;50.720;7.452;2023-07-20T06:16:23;99175.97;;;17.01;100.00
30554;BME280;17335;50.720;7.452;2023-07-20T06:18:50;99187.09;;;17.28;100.00
30554;BME280;17335;50.720;7.452;2023-07-20T06:21:17;99187.13;;;17.71;100.00
30554;BME280;17335;50.720;7.452;2023-07-20T06:23:43;99168.88;;;18.43;100.00
30554;BME280;17335;50.720;7.452;2023-07-20T06:26:12;99167.69;;;18.93;100.00
30554;BME280;17335;50.720;7.452;2023-07-20T06:28:39;99162.78;;;19.37;100.00
30554;BME280;17335;50.720;7.452;2023-07-20T06:31:05;99151.41;;;19.00;100.00
30554;BME280;17335;50.720;7.452;2023-07-20T06:33:32;99157.84;;;18.92;100.00
30554;BME280;17335;50.720;7.452;2023-07-20T06:35:58;99157.66;;;18.94;100.00
30554;BME280;17335;50.720;7.452;2023-07-20T06:38:24;99163.72;;;18.89;100.00
30554;BME280;17335;50.720;7.452;2023-07-20T06:40:54;99167.81;;;18.79;100.00
30554;BME280;17335;50.720;7.452;2023-07-20T06:43:20;99165.84;;;18.59;100.00
30554;BME280;17335;50.720;7.452;2023-07-20T06:45:53;99167.28;;;18.55;100.00
30554;BME280;17335;50.720;7.452;2023-07-20T06:48:21;99163.34;;;18.64;100.00
30554;BME280;17335;50.720;7.452;2023-07-20T06:50:47;99160.06;;;18.76;100.00
30554;BME280;17335;50.720;7.452;2023-07-20T06:53:14;99161.63;;;18.91;100.00
30554;BME280;17335;50.720;7.452;2023-07-20T06:55:42;99157.41;;;18.89;100.00
30554;BME280;17335;50.720;7.452;2023-07-20T06:58:09;99165.03;;;18.72;100.00
30554;BME280;17335;50.720;7.452;2023-07-20T07:00:35;99168.16;;;18.62;100.00
30554;BME280;17335;50.720;7.452;2023-07-20T07:03:02;99177.94;;;18.56;100.00
30554;BME280;17335;50.720;7.452;2023-07-20T07:05:29;99181.66;;;18.84;100.00
30554;BME280;17335;50.720;7.452;2023-07-20T07:08:02;99180.25;;;18.95;100.00
30554;BME280;17335;50.720;7.452;2023-07-20T07:10:29;99173.00;;;19.22;100.00
30554;BME280;17335;50.720;7.452;2023-07-20T07:12:55;99164.06;;;18.80;100.00
30554;BME280;17335;50.720;7.452;2023-07-20T07:15:21;99173.66;;;19.24;100.00
30554;BME280;17335;50.720;7.452;2023-07-20T07:17:48;99183.88;;;19.22;100.00
30554;BME280;17335;50.720;7.452;2023-07-20T07:20:14;99173.19;;;19.07;100.00
30554;BME280;17335;50.720;7.452;2023-07-20T07:22:44;99185.19;;;18.78;100.00
30554;BME280;17335;50.720;7.452;2023-07-20T07:25:12;99179.00;;;18.97;100.00
30554;BME280;17335;50.720;7.452;2023-07-20T07:27:38;99187.03;;;19.19;100.00
30554;BME280;17335;50.720;7.452;2023-07-20T07:30:05;99178.94;;;19.45;100.00
30554;BME280;17335;50.720;7.452;2023-07-20T07:32:32;99173.88;;;19.29;100.00
30554;BME280;17335;50.720;7.452;2023-07-20T07:34:59;99175.16;;;19.40;100.00
30554;BME280;17335;50.720;7.452;2023-07-20T07:37:26;99173.03;;;19.28;100.00
30554;BME280;17335;50.720;7.452;2023-07-20T07:39:53;99177.88;;;19.40;100.00
30554;BME280;17335;50.720;7.452;2023-07-20T07:42:19;99179.78;;;19.39;100.00
30554;BME280;17335;50.720;7.452;2023-07-20T07:44:49;99181.16;;;19.22;100.00
30554;BME280;17335;50.720;7.452;2023-07-20T07:47:15;99190.78;;;19.18;100.00
30554;BME280;17335;50.720;7.452;2023-07-20T07:49:42;99187.97;;;18.91;100.00
30554;BME280;17335;50.720;7.452;2023-07-20T07:52:12;99196.56;;;18.60;100.00
30554;BME280;17335;50.720;7.452;2023-07-20T07:54:40;99195.66;;;18.46;100.00
30554;BME280;17335;50.720;7.452;2023-07-20T07:57:07;99197.44;;;18.60;100.00
30554;BME280;17335;50.720;7.452;2023-07-20T07:59:33;99178.97;;;18.90;100.00
30554;BME280;17335;50.720;7.452;2023-07-20T08:02:04;99183.72;;;19.37;100.00
30554;BME280;17335;50.720;7.452;2023-07-20T08:04:31;99181.06;;;19.70;100.00
30554;BME280;17335;50.720;7.452;2023-07-20T08:06:59;99183.38;;;19.60;100.00
30554;BME280;17335;50.720;7.452;2023-07-20T08:09:26;99191.91;;;19.43;100.00
30554;BME280;17335;50.720;7.452;2023-07-20T08:11:52;99195.03;;;19.40;100.00
30554;BME280;17335;50.720;7.452;2023-07-20T08:14:18;99191.09;;;19.43;100.00
30554;BME280;17335;50.720;7.452;2023-07-20T08:16:45;99195.09;;;19.60;100.00
30554;BME280;17335;50.720;7.452;2023-07-20T08:19:12;99189.88;;;19.65;100.00
30554;BME280;17335;50.720;7.452;2023-07-20T08:21:39;99193.81;;;19.49;100.00
30554;BME280;17335;50.720;7.452;2023-07-20T08:24:05;99201.72;;;19.31;100.00
30554;BME280;17335;50.720;7.452;2023-07-20T08:26:32;99206.94;;;19.26;100.00
30554;BME280;17335;50.720;7.452;2023-07-20T08:28:59;99207.97;;;19.18;100.00
30554;BME280;17335;50.720;7.452;2023-07-20T08:31:25;99206.31;;;19.24;100.00
30554;BME280;17335;50.720;7.452;2023-07-20T08:33:51;99201.56;;;19.53;100.00
30554;BME280;17335;50.720;7.452;2023-07-20T08:36:18;99197.44;;;20.03;100.00
30554;BME280;17335;50.720;7.452;2023-07-20T08:38:44;99205.19;;;19.86;100.00
30554;BME280;17335;50.720;7.452;2023-07-20T08:41:11;99214.63;;;19.77;100.00
30554;BME280;17335;50.720;7.452;2023-07-20T08:43:40;99197.66;;;19.89;100.00
30554;BME280;17335;50.720;7.452;2023-07-20T08:46:10;99199.13;;;19.84;100.00
30554;BME280;17335;50.720;7.452;2023-07-20T08:48:37;99201.22;;;19.89;100.00
30554;BME280;17335;50.720;7.452;2023-07-20T08:51:05;99200.59;;;19.87;100.00
30554;BME280;17335;50.720;7.452;2023-07-20T08:53:32;99192.41;;;20.00;100.00
30554;BME280;17335;50.720;7.452;2023-07-20T08:56:00;99197.66;;;20.09;100.00
30554;BME280;17335;50.720;7.452;2023-07-20T08:58:27;99193.66;;;20.31;100.00
30554;BME280;17335;50.720;7.452;2023-07-20T09:00:55;99187.34;;;20.44;100.00
30554;BME280;17335;50.720;7.452;2023-07-20T09:03:24;99184.19;;;20.40;100.00
30554;BME280;17335;50.720;7.452;2023-07-20T09:05:51;99189.38;;;20.82;100.00
30554;BME280;17335;50.720;7.452;2023-07-20T09:08:18;99191.38;;;21.00;100.00
30554;BME280;17335;50.720;7.452;2023-07-20T09:10:45;99188.72;;;20.80;100.00
30554;BME280;17335;50.720;7.452;2023-07-20T09:13:15;99183.56;;;20.52;100.00
30554;BME280;17335;50.720;7.452;2023-07-20T09:15:46;99185.25;;;20.53;100.00
30554;BME280;17335;50.720;7.452;2023-07-20T09:18:27;99183.94;;;20.75;100.00
30554;BME280;17335;50.720;7.452;2023-07-20T09:21:05;99174.69;;;20.70;100.00
30554;BME280;17335;50.720;7.452;2023-07-20T09:23:33;99178.09;;;20.58;100.00
30554;BME280;17335;50.720;7.452;2023-07-20T09:26:01;99170.88;;;20.91;100.00
30554;BME280;17335;50.720;7.452;2023-07-20T09:29:09;99179.22;;;21.03;100.00
30554;BME280;17335;50.720;7.452;2023-07-20T09:31:27;99183.00;;;21.02;100.00
30554;BME280;17335;50.720;7.452;2023-07-20T09:34:06;99183.47;;;21.30;100.00
30554;BME280;17335;50.720;7.452;2023-07-20T09:36:35;99179.25;;;21.73;100.00
30554;BME280;17335;50.720;7.452;2023-07-20T09:39:04;99187.00;;;22.01;100.00
30554;BME280;17335;50.720;7.452;2023-07-20T09:41:39;99170.72;;;21.88;100.00
30554;BME280;17335;50.720;7.452;2023-07-20T09:44:11;99165.84;;;22.15;100.00
30554;BME280;17335;50.720;7.452;2023-07-20T09:46:48;99180.75;;;22.44;98.66
30554;BME280;17335;50.720;7.452;2023-07-20T09:49:18;99168.31;;;21.98;90.29
30554;BME280;17335;50.720;7.452;2023-07-20T09:51:48;99170.94;;;22.12;100.00
30554;BME280;17335;50.720;7.452;2023-07-20T09:54:16;99163.50;;;22.44;100.00
30554;BME280;17335;50.720;7.452;2023-07-20T09:56:44;99156.06;;;22.51;100.00
30554;BME280;17335;50.720;7.452;2023-07-20T09:59:11;99161.22;;;22.16;100.00
30554;BME280;17335;50.720;7.452;2023-07-20T10:01:40;99161.34;;;22.02;100.00
30554;BME280;17335;50.720;7.452;2023-07-20T10:04:08;99159.66;;;22.01;100.00
30554;BME280;17335;50.720;7.452;2023-07-20T10:06:37;99163.34;;;22.14;100.00
30554;BME280;17335;50.720;7.452;2023-07-20T10:09:07;99150.75;;;22.13;100.00
30554;BME280;17335;50.720;7.452;2023-07-20T10:11:36;99156.38;;;21.92;97.74
30554;BME280;17335;50.720;7.452;2023-07-20T10:14:04;99149.84;;;21.68;99.47
30554;BME280;17335;50.720;7.452;2023-07-20T10:16:36;99149.97;;;21.80;99.45
30554;BME280;17335;50.720;7.452;2023-07-20T10:19:10;99151.47;;;21.51;100.00
30554;BME280;17335;50.720;7.452;2023-07-20T10:21:42;99154.06;;;21.32;99.98
30554;BME280;17335;50.720;7.452;2023-07-20T10:24:16;99150.91;;;21.35;100.00
30554;BME280;17335;50.720;7.452;2023-07-20T10:26:43;99153.88;;;21.27;100.00
30554;BME280;17335;50.720;7.452;2023-07-20T10:29:11;99144.44;;;21.62;100.00
30554;BME280;17335;50.720;7.452;2023-07-20T10:31:38;99144.75;;;22.22;100.00
30554;BME280;17335;50.720;7.452;2023-07-20T10:34:05;99136.97;;;22.81;99.99
30554;BME280;17335;50.720;7.452;2023-07-20T10:36:32;99129.28;;;23.51;98.07
30554;BME280;17335;50.720;7.452;2023-07-20T10:38:58;99127.84;;;24.14;92.06
30554;BME280;17335;50.720;7.452;2023-07-20T10:41:29;99125.63;;;24.63;86.86
30554;BME280;17335;50.720;7.452;2023-07-20T10:44:04;99121.25;;;24.62;71.23
30554;BME280;17335;50.720;7.452;2023-07-20T10:46:44;99119.22;;;24.46;63.63
30554;BME280;17335;50.720;7.452;2023-07-20T10:49:13;99113.03;;;23.80;67.07
30554;BME280;17335;50.720;7.452;2023-07-20T10:51:43;99126.75;;;24.15;72.41
30554;BME280;17335;50.720;7.452;2023-07-20T10:56:44;99113.75;;;24.22;72.96
30554;BME280;17335;50.720;7.452;2023-07-20T10:59:42;99124.84;;;23.92;74.20
30554;BME280;17335;50.720;7.452;2023-07-20T11:02:08;99119.78;;;23.65;75.83
30554;BME280;17335;50.720;7.452;2023-07-20T11:07:04;99107.78;;;24.37;73.28
30554;BME280;17335;50.720;7.452;2023-07-20T11:09:35;99115.16;;;23.66;68.54
30554;BME280;17335;50.720;7.452;2023-07-20T11:12:13;99122.03;;;22.47;80.91
30554;BME280;17335;50.720;7.452;2023-07-20T11:14:42;99120.13;;;22.47;83.45
30554;BME280;17335;50.720;7.452;2023-07-20T11:17:15;99115.91;;;22.26;86.45
30554;BME280;17335;50.720;7.452;2023-07-20T11:19:48;99121.56;;;22.32;88.25
30554;BME280;17335;50.720;7.452;2023-07-20T11:22:17;99121.19;;;22.28;86.61
30554;BME280;17335;50.720;7.452;2023-07-20T11:24:44;99117.63;;;22.21;87.28
30554;BME280;17335;50.720;7.452;2023-07-20T11:27:10;99122.50;;;22.19;86.08
30554;BME280;17335;50.720;7.452;2023-07-20T11:29:37;99115.25;;;22.50;83.28
30554;BME280;17335;50.720;7.452;2023-07-20T11:32:04;99111.53;;;22.62;84.22
30554;BME280;17335;50.720;7.452;2023-07-20T11:34:33;99108.94;;;22.98;84.47
30554;BME280;17335;50.720;7.452;2023-07-20T11:37:00;99109.84;;;23.40;71.45
30554;BME280;17335;50.720;7.452;2023-07-20T11:39:29;99107.78;;;23.78;66.48
30554;BME280;17335;50.720;7.452;2023-07-20T11:41:57;99104.91;;;24.44;65.15
30554;BME280;17335;50.720;7.452;2023-07-20T11:44:26;99110.28;;;24.39;60.79
30554;BME280;17335;50.720;7.452;2023-07-20T11:47:11;99102.88;;;23.80;62.76
30554;BME280;17335;50.720;7.452;2023-07-20T11:49:42;99112.03;;;23.20;65.24
30554;BME280;17335;50.720;7.452;2023-07-20T11:52:11;99108.38;;;22.77;71.32
30554;BME280;17335;50.720;7.452;2023-07-20T11:54:40;99114.06;;;23.13;72.24
30554;BME280;17335;50.720;7.452;2023-07-20T11:57:20;99100.09;;;23.56;68.99
30554;BME280;17335;50.720;7.452;2023-07-20T11:59:57;99104.91;;;23.73;65.96
30554;BME280;17335;50.720;7.452;2023-07-20T12:02:29;99102.97;;;23.62;62.04
30554;BME280;17335;50.720;7.452;2023-07-20T12:04:56;99094.09;;;23.90;63.79
30554;BME280;17335;50.720;7.452;2023-07-20T12:07:26;99085.31;;;24.52;67.40
30554;BME280;17335;50.720;7.452;2023-07-20T12:10:11;99088.25;;;25.03;64.27
30554;BME280;17335;50.720;7.452;2023-07-20T12:12:43;99087.03;;;25.11;59.95
30554;BME280;17335;50.720;7.452;2023-07-20T12:15:16;99093.50;;;25.04;61.96
30554;BME280;17335;50.720;7.452;2023-07-20T12:17:48;99095.28;;;24.82;64.93
30554;BME280;17335;50.720;7.452;2023-07-20T12:20:45;99097.78;;;24.19;68.27
30554;BME280;17335;50.720;7.452;2023-07-20T12:23:13;99097.88;;;23.77;69.00
30554;BME280;17335;50.720;7.452;2023-07-20T12:25:43;99099.47;;;23.43;77.34
30554;BME280;17335;50.720;7.452;2023-07-20T12:28:12;99103.13;;;23.25;77.68
30554;BME280;17335;50.720;7.452;2023-07-20T12:30:39;99091.78;;;23.75;78.86
30554;BME280;17335;50.720;7.452;2023-07-20T12:33:06;99088.06;;;23.46;78.44
30554;BME280;17335;50.720;7.452;2023-07-20T12:35:33;99092.19;;;23.90;69.39
30554;BME280;17335;50.720;7.452;2023-07-20T12:38:00;99089.63;;;23.77;68.65
30554;BME280;17335;50.720;7.452;2023-07-20T12:40:27;99089.84;;;23.64;71.37
30554;BME280;17335;50.720;7.452;2023-07-20T12:42:53;99090.53;;;23.05;73.09
30554;BME280;17335;50.720;7.452;2023-07-20T12:45:20;99089.97;;;22.84;74.28
30554;BME280;17335;50.720;7.452;2023-07-20T12:47:48;99094.78;;;23.19;77.03
30554;BME280;17335;50.720;7.452;2023-07-20T12:50:15;99091.91;;;23.14;72.93
30554;BME280;17335;50.720;7.452;2023-07-20T12:52:42;99078.63;;;23.30;75.02
30554;BME280;17335;50.720;7.452;2023-07-20T12:55:09;99078.66;;;23.53;70.86
30554;BME280;17335;50.720;7.452;2023-07-20T12:57:37;99070.19;;;23.31;73.98
30554;BME280;17335;50.720;7.452;2023-07-20T13:00:06;99074.47;;;23.39;67.10
30554;BME280;17335;50.720;7.452;2023-07-20T13:02:36;99087.63;;;23.18;65.78
30554;BME280;17335;50.720;7.452;2023-07-20T13:05:02;99070.84;;;23.15;63.34
30554;BME280;17335;50.720;7.452;2023-07-20T13:07:31;99071.66;;;23.15;64.84
30554;BME280;17335;50.720;7.452;2023-07-20T13:10:01;99063.63;;;23.32;65.11
30554;BME280;17335;50.720;7.452;2023-07-20T13:12:29;99061.63;;;23.63;63.80